createdAt,value
2022-10-09T00:01:09.091Z,100275.75
2022-10-09T00:03:37.772Z,100265.38
2022-10-09T00:06:06.063Z,100265.34
2022-10-09T00:08:35.241Z,100273.16
2022-10-09T00:11:07.578Z,100271.41
2022-10-09T00:13:34.738Z,100267.97
2022-10-09T00:16:06.468Z,100274.91
2022-10-09T00:18:33.909Z,100277.53
2022-10-09T00:21:00.901Z,100287.06
2022-10-09T00:23:27.932Z,100292.25
2022-10-09T00:25:57.502Z,100294.88
2022-10-09T00:28:26.201Z,100297.47
2022-10-09T00:30:53.368Z,100300.91
2022-10-09T00:33:21.210Z,100310.47
2022-10-09T00:35:48.952Z,100303.50
2022-10-09T00:38:15.943Z,100311.31
2022-10-09T00:40:42.873Z,100303.53
2022-10-09T00:43:19.627Z,100295.72
2022-10-09T00:45:55.813Z,100298.34
2022-10-09T00:48:23.121Z,100300.06
2022-10-09T00:50:53.665Z,100294.84
2022-10-09T00:53:21.851Z,100297.47
2022-10-09T00:55:49.281Z,100294.84
2022-10-09T00:58:16.546Z,100302.66
2022-10-09T01:00:43.529Z,100305.25
2022-10-09T01:03:10.656Z,100310.44
2022-10-09T01:06:08.429Z,100319.13
2022-10-09T01:08:42.426Z,100310.47
2022-10-09T01:11:26.473Z,100307.84
2022-10-09T01:14:00.551Z,100313.91
2022-10-09T01:16:29.861Z,100308.72
2022-10-09T01:19:27.392Z,100314.78
2022-10-09T01:22:24.992Z,100309.59
2022-10-09T01:25:29.574Z,100313.91
2022-10-09T01:27:57.085Z,100308.72
2022-10-09T01:30:23.951Z,100313.03
2022-10-09T01:32:53.132Z,100318.22
2022-10-09T01:35:20.951Z,100320.81
2022-10-09T01:37:47.981Z,100339.03
2022-10-09T01:40:16.934Z,100335.53
2022-10-09T01:42:46.577Z,100334.66
2022-10-09T01:45:15.020Z,100344.16
2022-10-09T01:47:42.186Z,100345.91
2022-10-09T01:50:30.394Z,100344.16
2022-10-09T01:53:01.503Z,100351.94
2022-10-09T01:55:47.125Z,100348.44
2022-10-09T01:58:40.751Z,100351.91
2022-10-09T02:01:33.294Z,100351.06
2022-10-09T02:04:01.671Z,100354.50
2022-10-09T02:06:29.092Z,100347.56
2022-10-09T02:08:56.319Z,100349.28
2022-10-09T02:11:24.549Z,100360.53
2022-10-09T02:13:53.111Z,100369.22
2022-10-09T02:16:24.927Z,100370.91
2022-10-09T02:18:59.806Z,100369.22
2022-10-09T02:21:31.781Z,100387.38
2022-10-09T02:23:58.510Z,100386.53
2022-10-09T02:26:25.850Z,100383.06
2022-10-09T02:28:52.862Z,100394.28
2022-10-09T02:31:29.324Z,100398.63
2022-10-09T02:34:01.586Z,100403.81
2022-10-09T02:36:29.708Z,100402.13
2022-10-09T02:38:57.421Z,100407.38
2022-10-09T02:41:25.242Z,100413.41
2022-10-09T02:43:52.253Z,100411.72
2022-10-09T02:46:19.575Z,100409.13
2022-10-09T02:48:46.591Z,100422.09
2022-10-09T02:51:13.771Z,100415.16
2022-10-09T02:53:41.007Z,100421.22
2022-10-09T02:56:07.949Z,100411.66
2022-10-09T02:58:35.727Z,100422.03
2022-10-09T03:01:03.733Z,100419.41
2022-10-09T03:03:30.789Z,100434.13
2022-10-09T03:06:11.522Z,100429.78
2022-10-09T03:08:40.462Z,100434.94
2022-10-09T03:11:07.903Z,100436.69
2022-10-09T03:13:34.973Z,100438.38
2022-10-09T03:16:06.466Z,100435.75
2022-10-09T03:18:33.351Z,100437.50
2022-10-09T03:21:00.504Z,100440.06
2022-10-09T03:23:27.433Z,100455.59
2022-10-09T03:26:02.592Z,100465.97
2022-10-09T03:28:29.916Z,100456.47
2022-10-09T03:30:57.029Z,100459.91
2022-10-09T03:33:24.001Z,100465.97
2022-10-09T03:35:51.002Z,100469.41
2022-10-09T03:38:17.993Z,100474.59
2022-10-09T03:40:45.184Z,100480.72
2022-10-09T03:43:12.062Z,100477.25
2022-10-09T03:45:43.191Z,100472.03
2022-10-09T03:48:11.439Z,100483.28
2022-10-09T03:50:39.610Z,100485.84
2022-10-09T03:53:08.142Z,100481.50
2022-10-09T03:55:35.411Z,100491.94
2022-10-09T03:58:02.561Z,100493.63
2022-10-09T04:00:30.433Z,100498.81
2022-10-09T04:02:57.671Z,100503.97
2022-10-09T04:05:24.691Z,100507.44
2022-10-09T04:07:51.729Z,100506.56
2022-10-09T04:10:18.740Z,100506.56
2022-10-09T04:12:45.807Z,100503.09
2022-10-09T04:15:12.805Z,100506.56
2022-10-09T04:17:39.941Z,100509.09
2022-10-09T04:20:07.301Z,100522.94
2022-10-09T04:22:34.638Z,100520.34
2022-10-09T04:25:01.520Z,100529.00
2022-10-09T04:27:28.486Z,100524.72
2022-10-09T04:29:55.371Z,100531.63
2022-10-09T04:32:22.300Z,100527.28
2022-10-09T04:34:49.182Z,100535.09
2022-10-09T04:37:16.153Z,100529.03
2022-10-09T04:39:43.091Z,100539.38
2022-10-09T04:42:09.940Z,100537.66
2022-10-09T04:44:36.862Z,100535.94
2022-10-09T04:47:05.419Z,100540.25
2022-10-09T04:49:34.032Z,100536.84
2022-10-09T04:52:00.924Z,100536.84
2022-10-09T04:54:27.912Z,100545.44
2022-10-09T04:56:54.867Z,100545.44
2022-10-09T04:59:21.777Z,100554.09
2022-10-09T05:01:49.105Z,100555.00
2022-10-09T05:04:16.021Z,100555.84
2022-10-09T05:06:42.892Z,100564.50
2022-10-09T05:09:09.811Z,100568.03
2022-10-09T05:11:40.496Z,100566.28
2022-10-09T05:14:09.357Z,100569.75
2022-10-09T05:17:01.067Z,100567.16
2022-10-09T05:19:23.532Z,100574.13
2022-10-09T05:21:50.434Z,100581.94
2022-10-09T05:24:17.381Z,100581.09
2022-10-09T05:26:44.409Z,100582.84
2022-10-09T05:29:11.307Z,100588.03
2022-10-09T05:31:38.242Z,100593.31
2022-10-09T05:34:05.362Z,100596.81
2022-10-09T05:36:32.527Z,100591.66
2022-10-09T05:39:01.367Z,100595.16
2022-10-09T05:41:29.868Z,100598.69
2022-10-09T05:44:01.481Z,100603.06
2022-10-09T05:46:30.033Z,100605.69
2022-10-09T05:49:00.209Z,100609.19
2022-10-09T05:51:32.102Z,100606.63
2022-10-09T05:53:59.136Z,100613.63
2022-10-09T05:56:39.240Z,100621.44
2022-10-09T05:59:11.450Z,100618.88
2022-10-09T06:01:43.983Z,100624.94
2022-10-09T06:04:16.697Z,100631.06
2022-10-09T06:06:44.893Z,100638.91
2022-10-09T06:09:12.351Z,100638.06
2022-10-09T06:11:40.132Z,100641.53
2022-10-09T06:14:09.166Z,100649.38
2022-10-09T06:16:38.522Z,100650.25
2022-10-09T06:19:06.501Z,100651.16
2022-10-09T06:21:34.325Z,100659.88
2022-10-09T06:24:02.594Z,100663.34
2022-10-09T06:26:30.410Z,100660.78
2022-10-09T06:28:59.025Z,100674.66
2022-10-09T06:31:28.822Z,100682.47
2022-10-09T06:34:00.466Z,100679.91
2022-10-09T06:36:33.880Z,100694.66
2022-10-09T06:39:03.641Z,100691.22
2022-10-09T06:41:31.270Z,100692.94
2022-10-09T06:44:00.763Z,100701.66
2022-10-09T06:46:31.498Z,100699.91
2022-10-09T06:49:00.009Z,100703.41
2022-10-09T06:51:30.586Z,100710.38
2022-10-09T06:54:00.438Z,100705.16
2022-10-09T06:56:29.043Z,100714.72
2022-10-09T06:58:56.508Z,100717.34
2022-10-09T07:01:27.032Z,100722.56
2022-10-09T07:03:56.719Z,100723.47
2022-10-09T07:06:31.848Z,100729.53
2022-10-09T07:09:04.641Z,100734.75
2022-10-09T07:11:37.173Z,100737.34
2022-10-09T07:14:06.073Z,100744.31
2022-10-09T07:16:36.070Z,100744.31
2022-10-09T07:19:07.500Z,100752.13
2022-10-09T07:21:38.018Z,100752.13
2022-10-09T07:24:07.104Z,100753.84
2022-10-09T07:26:36.272Z,100754.72
2022-10-09T07:29:04.852Z,100750.38
2022-10-09T07:31:31.872Z,100759.91
2022-10-09T07:33:59.250Z,100770.34
2022-10-09T07:36:26.549Z,100768.59
2022-10-09T07:38:56.092Z,100764.22
2022-10-09T07:41:25.470Z,100773.75
2022-10-09T07:43:52.880Z,100771.97
2022-10-09T07:46:21.674Z,100774.56
2022-10-09T07:48:49.297Z,100778.88
2022-10-09T07:51:24.544Z,100784.06
2022-10-09T07:53:52.150Z,100783.19
2022-10-09T07:56:21.385Z,100789.25
2022-10-09T07:58:53.386Z,100794.47
2022-10-09T08:01:20.917Z,100790.13
2022-10-09T08:03:48.876Z,100797.13
2022-10-09T08:06:16.465Z,100797.09
2022-10-09T08:08:44.289Z,100809.28
2022-10-09T08:11:13.788Z,100806.59
2022-10-09T08:13:41.391Z,100803.94
2022-10-09T08:16:08.830Z,100810.84
2022-10-09T08:18:36.714Z,100809.13
2022-10-09T08:21:15.254Z,100823.94
2022-10-09T08:23:42.884Z,100817.84
2022-10-09T08:26:23.481Z,100823.94
2022-10-09T08:28:53.005Z,100827.44
2022-10-09T08:31:21.150Z,100825.69
2022-10-09T08:33:52.175Z,100830.91
2022-10-09T08:36:19.406Z,100821.28
2022-10-09T08:38:47.814Z,100838.69
2022-10-09T08:41:40.352Z,100834.28
2022-10-09T08:44:23.387Z,100834.22
2022-10-09T08:47:08.792Z,100841.13
2022-10-09T08:49:57.662Z,100849.78
2022-10-09T08:52:40.451Z,100856.78
2022-10-09T08:55:17.016Z,100856.00
2022-10-09T08:57:45.567Z,100856.06
2022-10-09T09:00:17.103Z,100871.72
2022-10-09T09:03:04.698Z,100875.09
2022-10-09T09:05:44.267Z,100877.59
2022-10-09T09:08:23.354Z,100868.81
2022-10-09T09:11:02.508Z,100875.84
2022-10-09T09:13:39.983Z,100878.50
2022-10-09T09:16:15.526Z,100882.88
2022-10-09T09:18:50.720Z,100873.16
2022-10-09T09:21:38.189Z,100873.84
2022-10-09T09:24:20.654Z,100869.41
2022-10-09T09:26:51.291Z,100877.34
2022-10-09T09:29:24.284Z,100876.50
2022-10-09T09:31:55.416Z,100880.84
2022-10-09T09:34:29.355Z,100876.63
2022-10-09T09:36:58.503Z,100881.94
2022-10-09T09:42:18.165Z,100885.28
2022-10-09T09:44:50.322Z,100879.97
2022-10-09T09:47:28.273Z,100890.31
2022-10-09T09:49:58.106Z,100884.09
2022-10-09T09:52:27.596Z,100881.38
2022-10-09T09:54:57.275Z,100895.16
2022-10-09T09:57:31.245Z,100893.47
2022-10-09T10:00:09.149Z,100894.50
2022-10-09T10:02:36.885Z,100893.81
2022-10-09T10:05:17.262Z,100909.75
2022-10-09T10:07:44.294Z,100899.44
2022-10-09T10:10:25.738Z,100911.78
2022-10-09T10:12:53.225Z,100905.72
2022-10-09T10:15:23.772Z,100908.28
2022-10-09T10:18:06.302Z,100914.34
2022-10-09T10:20:42.476Z,100899.44
2022-10-09T10:23:23.317Z,100909.00
2022-10-09T10:25:53.403Z,100910.69
2022-10-09T10:28:25.099Z,100913.22
2022-10-09T10:30:52.400Z,100910.50
2022-10-09T10:33:29.076Z,100909.56
2022-10-09T10:35:56.884Z,100898.97
2022-10-09T10:38:30.192Z,100918.91
2022-10-09T10:41:05.508Z,100915.25
2022-10-09T10:43:44.535Z,100918.69
2022-10-09T10:46:23.825Z,100913.38
2022-10-09T10:48:51.796Z,100921.03
2022-10-09T10:51:29.276Z,100917.34
2022-10-09T10:54:23.790Z,100917.28
2022-10-09T10:56:53.697Z,100914.72
2022-10-09T10:59:39.867Z,100918.41
2022-10-09T11:02:09.909Z,100923.72
2022-10-09T11:05:03.380Z,100929.84
2022-10-09T11:07:33.310Z,100922.00
2022-10-09T11:10:24.040Z,100924.75
2022-10-09T11:13:15.523Z,100926.53
2022-10-09T11:16:00.918Z,100918.63
2022-10-09T11:18:40.923Z,100916.75
2022-10-09T11:21:21.506Z,100909.56
2022-10-09T11:24:12.113Z,100913.97
2022-10-09T11:27:03.642Z,100921.09
2022-10-09T11:29:38.344Z,100924.75
2022-10-09T11:32:20.498Z,100920.47
2022-10-09T11:34:53.119Z,100929.28
2022-10-09T11:37:24.101Z,100926.69
2022-10-09T11:39:51.475Z,100926.59
2022-10-09T11:42:24.579Z,100938.75
2022-10-09T11:45:01.630Z,100927.28
2022-10-09T11:47:40.189Z,100929.69
2022-10-09T11:50:44.634Z,100929.50
2022-10-09T11:53:14.648Z,100925.22
2022-10-09T11:55:42.930Z,100933.28
2022-10-09T11:58:24.334Z,100929.06
2022-10-09T12:00:54.182Z,100932.75
2022-10-09T12:03:25.617Z,100927.59
2022-10-09T12:05:52.751Z,100929.25
2022-10-09T12:08:27.158Z,100944.00
2022-10-09T12:11:17.477Z,100934.25
2022-10-09T12:14:04.449Z,100939.41
2022-10-09T12:16:37.241Z,100934.19
2022-10-09T12:19:16.546Z,100938.56
2022-10-09T12:21:46.755Z,100942.94
2022-10-09T12:24:17.163Z,100942.16
2022-10-09T12:26:44.532Z,100943.06
2022-10-09T12:29:20.405Z,100945.72
2022-10-09T12:31:47.747Z,100946.50
2022-10-09T12:34:31.248Z,100943.81
2022-10-09T12:37:11.582Z,100935.84
2022-10-09T12:39:39.229Z,100938.38
2022-10-09T12:42:10.021Z,100941.88
2022-10-09T12:44:40.132Z,100939.97
2022-10-09T12:47:20.548Z,100932.88
2022-10-09T12:50:18.921Z,100933.72
2022-10-09T12:52:54.911Z,100937.13
2022-10-09T12:55:36.341Z,100933.75
2022-10-09T12:58:15.654Z,100928.63
2022-10-09T13:00:43.125Z,100933.84
2022-10-09T13:03:28.625Z,100934.66
2022-10-09T13:05:57.273Z,100934.72
2022-10-09T13:08:27.288Z,100938.44
2022-10-09T13:10:54.690Z,100947.41
2022-10-09T13:13:28.413Z,100944.81
2022-10-09T13:16:06.357Z,100947.50
2022-10-09T13:18:33.408Z,100944.97
2022-10-09T13:21:24.849Z,100948.63
2022-10-09T13:23:52.377Z,100955.72
2022-10-09T13:26:25.455Z,100958.38
2022-10-09T13:28:53.377Z,100956.63
2022-10-09T13:31:20.831Z,100960.91
2022-10-09T13:33:48.749Z,100964.28
2022-10-09T13:36:17.234Z,100968.59
2022-10-09T13:38:44.744Z,100953.72
2022-10-09T13:41:14.883Z,100964.22
2022-10-09T13:43:42.662Z,100965.09
2022-10-09T13:46:10.031Z,100972.09
2022-10-09T13:48:38.142Z,100964.19
2022-10-09T13:51:06.557Z,100955.44
2022-10-09T13:53:33.900Z,100955.38
2022-10-09T13:56:01.361Z,100957.00
2022-10-09T13:58:29.005Z,100957.81
2022-10-09T14:00:56.081Z,100954.31
2022-10-09T14:03:23.227Z,100962.22
2022-10-09T14:05:50.255Z,100958.78
2022-10-09T14:08:17.327Z,100955.38
2022-10-09T14:10:44.689Z,100958.03
2022-10-09T14:13:11.829Z,100967.69
2022-10-09T14:15:40.273Z,100960.69
2022-10-09T14:18:08.134Z,100962.50
2022-10-09T14:20:35.552Z,100960.75
2022-10-09T14:23:02.575Z,100958.16
2022-10-09T14:25:29.884Z,100961.72
2022-10-09T14:27:56.845Z,100950.44
2022-10-09T14:30:23.932Z,100954.00
2022-10-09T14:32:51.407Z,100968.91
2022-10-09T14:35:21.531Z,100966.31
2022-10-09T14:37:49.088Z,100966.41
2022-10-09T14:40:16.101Z,100963.81
2022-10-09T14:42:43.082Z,100965.56
2022-10-09T14:45:10.632Z,100958.59
2022-10-09T14:47:37.754Z,100956.03
2022-10-09T14:50:05.379Z,100962.13
2022-10-09T14:52:32.612Z,100969.09
2022-10-09T14:54:59.560Z,100965.66
2022-10-09T14:57:30.251Z,100966.53
2022-10-09T15:00:00.062Z,100964.81
2022-10-09T15:02:27.039Z,100970.03
2022-10-09T15:04:54.224Z,100961.34
2022-10-09T15:07:21.285Z,100968.34
2022-10-09T15:09:48.474Z,100972.72
2022-10-09T15:12:15.404Z,100968.38
2022-10-09T15:14:42.724Z,100969.31
2022-10-09T15:17:09.838Z,100968.47
2022-10-09T15:19:37.933Z,100967.63
2022-10-09T15:22:05.252Z,100971.13
2022-10-09T15:24:32.376Z,100972.91
2022-10-09T15:26:59.364Z,100971.22
2022-10-09T15:29:26.455Z,100978.19
2022-10-09T15:31:53.474Z,100973.00
2022-10-09T15:34:20.674Z,100977.34
2022-10-09T15:36:47.654Z,100979.94
2022-10-09T15:39:15.062Z,100981.69
2022-10-09T15:41:43.341Z,100987.81
2022-10-09T15:44:19.513Z,100984.31
2022-10-09T15:46:47.493Z,100983.41
2022-10-09T15:49:14.613Z,100984.31
2022-10-09T15:51:42.078Z,100986.00
2022-10-09T15:54:10.132Z,100995.56
2022-10-09T15:56:39.840Z,100989.47
2022-10-09T15:59:09.526Z,100998.09
2022-10-09T16:01:37.479Z,100995.50
2022-10-09T16:04:04.939Z,100996.31
2022-10-09T16:06:32.695Z,101005.78
2022-10-09T16:09:01.500Z,101003.09
2022-10-09T16:11:28.766Z,100999.53
2022-10-09T16:13:56.498Z,101012.50
2022-10-09T16:16:26.074Z,101010.66
2022-10-09T16:18:53.949Z,101018.34
2022-10-09T16:21:26.831Z,101018.25
2022-10-09T16:23:58.407Z,101025.09
2022-10-09T16:26:28.580Z,101022.41
2022-10-09T16:28:55.844Z,101017.97
2022-10-09T16:31:25.998Z,101022.25
2022-10-09T16:33:53.515Z,101023.00
2022-10-09T16:36:20.767Z,101023.81
2022-10-09T16:38:48.195Z,101020.97
2022-10-09T16:41:18.491Z,101023.44
2022-10-09T16:43:47.090Z,101025.97
2022-10-09T16:46:22.869Z,101024.97
2022-10-09T16:48:51.495Z,101027.50
2022-10-09T16:51:22.693Z,101020.50
2022-10-09T16:53:51.587Z,101024.69
2022-10-09T16:56:20.683Z,101040.09
2022-10-09T16:58:48.293Z,101034.75
2022-10-09T17:01:15.952Z,101036.41
2022-10-09T17:03:43.114Z,101032.84
2022-10-09T17:06:16.854Z,101038.81
2022-10-09T17:08:44.472Z,101043.06
2022-10-09T17:11:14.663Z,101042.13
2022-10-09T17:13:42.050Z,101037.78
2022-10-09T17:16:17.832Z,101040.28
2022-10-09T17:18:45.968Z,101036.69
2022-10-09T17:21:14.106Z,101044.38
2022-10-09T17:23:41.109Z,101039.94
2022-10-09T17:26:21.448Z,101050.22
2022-10-09T17:28:49.338Z,101048.44
2022-10-09T17:31:19.135Z,101049.16
2022-10-09T17:33:48.554Z,101050.72
2022-10-09T17:36:18.467Z,101046.31
2022-10-09T17:38:45.904Z,101041.88
2022-10-09T17:41:14.211Z,101043.47
2022-10-09T17:43:41.675Z,101038.16
2022-10-09T17:46:12.777Z,101040.59
2022-10-09T17:48:44.718Z,101042.31
2022-10-09T17:51:17.237Z,101048.19
2022-10-09T17:56:46.859Z,101042.00
2022-10-09T17:59:15.642Z,101047.94
2022-10-09T18:01:44.104Z,101047.88
2022-10-09T18:04:20.057Z,101050.41
2022-10-09T18:06:47.288Z,101043.53
2022-10-09T18:09:14.421Z,101059.03
2022-10-09T18:11:41.691Z,101046.72
2022-10-09T18:14:10.042Z,101048.34
2022-10-09T18:16:38.733Z,101047.38
2022-10-09T18:19:14.766Z,101050.75
2022-10-09T18:21:45.062Z,101058.47
2022-10-09T18:24:12.943Z,101059.22
2022-10-09T18:26:40.654Z,101055.66
2022-10-09T18:29:08.050Z,101059.03
2022-10-09T18:31:35.315Z,101059.00
2022-10-09T18:34:02.283Z,101063.22
2022-10-09T18:36:31.879Z,101065.69
2022-10-09T18:39:01.910Z,101059.66
2022-10-09T18:41:29.061Z,101070.00
2022-10-09T18:44:00.064Z,101070.06
2022-10-09T18:46:34.702Z,101070.09
2022-10-09T18:49:02.592Z,101067.53
2022-10-09T18:51:29.565Z,101076.28
2022-10-09T18:53:59.996Z,101071.09
2022-10-09T18:56:28.054Z,101070.88
2022-10-09T18:58:55.214Z,101080.97
2022-10-09T19:01:22.369Z,101072.16
2022-10-09T19:03:50.377Z,101080.69
2022-10-09T19:06:18.751Z,101081.44
2022-10-09T19:08:46.484Z,101082.28
2022-10-09T19:11:14.739Z,101083.09
2022-10-09T19:13:42.758Z,101081.22
2022-10-09T19:16:10.120Z,101081.19
2022-10-09T19:18:37.824Z,101078.50
2022-10-09T19:21:05.875Z,101078.44
2022-10-09T19:23:32.879Z,101082.69
2022-10-09T19:26:00.169Z,101076.53
2022-10-09T19:28:31.191Z,101081.44
2022-10-09T19:31:02.369Z,101074.50
2022-10-09T19:33:29.763Z,101088.22
2022-10-09T19:35:58.013Z,101080.41
2022-10-09T19:38:27.937Z,101076.94
2022-10-09T19:40:55.549Z,101079.56
2022-10-09T19:43:24.472Z,101077.81
2022-10-09T19:46:02.503Z,101076.00
2022-10-09T19:48:30.596Z,101076.84
2022-10-09T19:50:58.366Z,101073.16
2022-10-09T19:53:25.715Z,101079.16
2022-10-09T19:55:54.021Z,101078.22
2022-10-09T19:58:23.133Z,101072.09
2022-10-09T20:00:52.698Z,101076.34
2022-10-09T20:03:22.758Z,101068.53
2022-10-09T20:06:01.573Z,101075.34
2022-10-09T20:08:34.574Z,101081.31
2022-10-09T20:11:09.211Z,101078.66
2022-10-09T20:13:43.570Z,101076.78
2022-10-09T20:16:21.746Z,101074.97
2022-10-09T20:18:49.821Z,101080.16
2022-10-09T20:21:18.221Z,101076.72
2022-10-09T20:23:45.609Z,101078.53
2022-10-09T20:26:15.814Z,101084.63
2022-10-09T20:28:44.179Z,101084.69
2022-10-09T20:31:14.931Z,101077.69
2022-10-09T20:33:42.613Z,101079.25
2022-10-09T20:36:18.922Z,101084.31
2022-10-09T20:38:47.278Z,101088.59
2022-10-09T20:41:15.516Z,101086.81
2022-10-09T20:43:42.515Z,101086.75
2022-10-09T20:46:14.808Z,101074.69
2022-10-09T20:48:42.781Z,101077.25
2022-10-09T20:51:10.185Z,101082.44
2022-10-09T20:53:37.235Z,101079.84
2022-10-09T20:56:06.742Z,101072.78
2022-10-09T20:58:34.315Z,101079.63
2022-10-09T21:01:05.077Z,101076.09
2022-10-09T21:03:32.206Z,101081.19
2022-10-09T21:05:59.135Z,101077.59
2022-10-09T21:08:26.421Z,101074.91
2022-10-09T21:10:53.533Z,101076.66
2022-10-09T21:13:20.774Z,101082.66
2022-10-09T21:15:49.029Z,101079.91
2022-10-09T21:18:17.700Z,101074.63
2022-10-09T21:20:45.878Z,101080.56
2022-10-09T21:23:14.945Z,101083.91
2022-10-09T21:25:54.120Z,101090.66
2022-10-09T21:28:22.123Z,101079.41
2022-10-09T21:30:49.377Z,101082.72
2022-10-09T21:33:17.147Z,101075.72
2022-10-09T21:35:46.915Z,101077.28
2022-10-09T21:38:20.115Z,101076.25
2022-10-09T21:40:47.157Z,101078.84
2022-10-09T21:43:14.031Z,101075.34
2022-10-09T21:45:41.483Z,101067.59
2022-10-09T21:48:09.952Z,101075.34
2022-10-09T21:50:36.973Z,101076.13
2022-10-09T21:53:03.937Z,101076.13
2022-10-09T21:55:31.142Z,101076.94
2022-10-09T21:57:58.063Z,101079.50
2022-10-09T22:00:25.377Z,101076.00
2022-10-09T22:02:52.608Z,101073.34
2022-10-09T22:05:19.904Z,101077.53
2022-10-09T22:07:46.901Z,101079.16
2022-10-09T22:10:13.818Z,101072.13
2022-10-09T22:12:40.944Z,101079.66
2022-10-09T22:15:08.084Z,101073.44
2022-10-09T22:17:35.068Z,101068.94
2022-10-09T22:20:02.378Z,101078.31
2022-10-09T22:22:29.806Z,101083.41
2022-10-09T22:24:56.696Z,101075.50
2022-10-09T22:27:23.731Z,101075.47
2022-10-09T22:29:50.764Z,101071.94
2022-10-09T22:32:17.765Z,101076.22
2022-10-09T22:34:44.679Z,101077.22
2022-10-09T22:37:11.977Z,101073.75
2022-10-09T22:39:38.982Z,101077.22
2022-10-09T22:42:06.029Z,101077.22
2022-10-09T22:44:32.907Z,101082.25
2022-10-09T22:46:59.929Z,101077.06
2022-10-09T22:49:27.569Z,101080.47
2022-10-09T22:51:54.489Z,101081.34
2022-10-09T22:54:22.218Z,101075.31
2022-10-09T22:56:49.265Z,101076.16
2022-10-09T22:59:18.461Z,101075.19
2022-10-09T23:01:53.615Z,101073.50
2022-10-09T23:04:21.801Z,101078.72
2022-10-09T23:06:54.693Z,101072.69
2022-10-09T23:09:23.630Z,101081.22
2022-10-09T23:11:50.895Z,101082.03
2022-10-09T23:14:18.072Z,101080.28
2022-10-09T23:16:44.978Z,101077.69
2022-10-09T23:19:12.304Z,101064.66
2022-10-09T23:21:41.390Z,101073.94
2022-10-09T23:24:09.557Z,101075.53
2022-10-09T23:26:37.424Z,101067.69
2022-10-09T23:29:09.387Z,101068.47
2022-10-09T23:31:37.085Z,101071.13
2022-10-09T23:34:05.103Z,101071.00
2022-10-09T23:36:32.308Z,101070.94
2022-10-09T23:39:01.268Z,101073.63
2022-10-09T23:41:28.913Z,101058.94
2022-10-09T23:43:55.987Z,101064.13
2022-10-09T23:46:24.886Z,101062.34
2022-10-09T23:48:52.713Z,101056.25
2022-10-09T23:51:20.895Z,101068.25
2022-10-09T23:53:48.076Z,101062.22
2022-10-09T23:56:25.793Z,101063.78
2022-10-09T23:58:53.677Z,101053.47
